sensor_id;sensor_type;location;lat;lon;timestamp;P1;durP1;ratioP1;P2;durP2;ratioP2
45650;SDS011;31365;48.858;8.530;2023-03-04T01:07:27;15.17;;;11.53;;
45650;SDS011;31365;48.858;8.530;2023-03-04T01:10:00;17.43;;;12.00;;
45650;SDS011;31365;48.858;8.530;2023-03-04T01:12:29;18.73;;;12.97;;
45650;SDS011;31365;48.858;8.530;2023-03-04T01:15:17;14.00;;;11.17;;
45650;SDS011;31365;48.858;8.530;2023-03-04T01:17:48;15.67;;;11.00;;
45650;SDS011;31365;48.858;8.530;2023-03-04T01:20:20;14.70;;;11.40;;
45650;SDS011;31365;48.858;8.530;2023-03-04T01:23:13;14.23;;;10.07;;
45650;SDS011;31365;48.858;8.530;2023-03-04T01:26:05;14.20;;;10.10;;
45650;SDS011;31365;48.858;8.530;2023-03-04T01:28:36;14.10;;;10.67;;
45650;SDS011;31365;48.858;8.530;2023-03-04T01:31:06;13.07;;;9.17;;
45650;SDS011;31365;48.858;8.530;2023-03-04T01:33:36;12.67;;;9.80;;
45650;SDS011;31365;48.858;8.530;2023-03-04T01:36:14;11.90;;;9.30;;
45650;SDS011;31365;48.858;8.530;2023-03-04T01:38:45;15.07;;;9.77;;
45650;SDS011;31365;48.858;8.530;2023-03-04T01:41:18;10.77;;;9.17;;
45650;SDS011;31365;48.858;8.530;2023-03-04T01:43:54;11.90;;;8.77;;
45650;SDS011;31365;48.858;8.530;2023-03-04T01:46:28;13.13;;;10.07;;
45650;SDS011;31365;48.858;8.530;2023-03-04T01:49:01;13.33;;;9.47;;
45650;SDS011;31365;48.858;8.530;2023-03-04T01:51:33;11.77;;;9.17;;
45650;SDS011;31365;48.858;8.530;2023-03-04T01:54:04;12.83;;;9.83;;
45650;SDS011;31365;48.858;8.530;2023-03-04T01:56:39;12.50;;;9.43;;
45650;SDS011;31365;48.858;8.530;2023-03-04T01:59:11;12.60;;;9.70;;
45650;SDS011;31365;48.858;8.530;2023-03-04T02:01:45;11.17;;;8.77;;
45650;SDS011;31365;48.858;8.530;2023-03-04T02:04:17;10.33;;;9.23;;
45650;SDS011;31365;48.858;8.530;2023-03-04T02:06:52;11.47;;;8.93;;
45650;SDS011;31365;48.858;8.530;2023-03-04T02:09:26;11.67;;;9.20;;
45650;SDS011;31365;48.858;8.530;2023-03-04T02:11:57;14.10;;;10.37;;
45650;SDS011;31365;48.858;8.530;2023-03-04T02:14:30;12.37;;;9.30;;
45650;SDS011;31365;48.858;8.530;2023-03-04T02:16:59;11.10;;;8.87;;
45650;SDS011;31365;48.858;8.530;2023-03-04T02:19:32;12.23;;;8.97;;
45650;SDS011;31365;48.858;8.530;2023-03-04T02:22:13;13.00;;;9.20;;
45650;SDS011;31365;48.858;8.530;2023-03-04T02:24:44;12.37;;;9.17;;
45650;SDS011;31365;48.858;8.530;2023-03-04T02:27:23;12.67;;;9.90;;
45650;SDS011;31365;48.858;8.530;2023-03-04T02:29:54;13.33;;;9.43;;
45650;SDS011;31365;48.858;8.530;2023-03-04T02:32:25;14.20;;;10.40;;
45650;SDS011;31365;48.858;8.530;2023-03-04T02:34:57;13.37;;;10.23;;
45650;SDS011;31365;48.858;8.530;2023-03-04T02:37:27;12.60;;;10.17;;
45650;SDS011;31365;48.858;8.530;2023-03-04T02:39:59;11.93;;;9.40;;
45650;SDS011;31365;48.858;8.530;2023-03-04T02:42:31;13.70;;;10.33;;
45650;SDS011;31365;48.858;8.530;2023-03-04T02:45:01;12.20;;;9.90;;
45650;SDS011;31365;48.858;8.530;2023-03-04T02:47:30;14.73;;;9.77;;
45650;SDS011;31365;48.858;8.530;2023-03-04T02:49:59;13.00;;;10.23;;
45650;SDS011;31365;48.858;8.530;2023-03-04T02:52:29;12.83;;;9.50;;
45650;SDS011;31365;48.858;8.530;2023-03-04T02:55:02;13.70;;;8.97;;
45650;SDS011;31365;48.858;8.530;2023-03-04T02:57:35;13.43;;;9.57;;
45650;SDS011;31365;48.858;8.530;2023-03-04T03:00:07;13.70;;;10.23;;
45650;SDS011;31365;48.858;8.530;2023-03-04T03:02:40;12.57;;;9.70;;
45650;SDS011;31365;48.858;8.530;2023-03-04T03:05:11;14.83;;;10.00;;
45650;SDS011;31365;48.858;8.530;2023-03-04T03:07:41;13.90;;;10.20;;
45650;SDS011;31365;48.858;8.530;2023-03-04T03:10:11;13.67;;;9.77;;
45650;SDS011;31365;48.858;8.530;2023-03-04T03:12:42;12.27;;;9.90;;
45650;SDS011;31365;48.858;8.530;2023-03-04T03:15:11;11.70;;;9.57;;
45650;SDS011;31365;48.858;8.530;2023-03-04T03:17:41;13.50;;;10.30;;
45650;SDS011;31365;48.858;8.530;2023-03-04T03:20:14;12.80;;;9.47;;
45650;SDS011;31365;48.858;8.530;2023-03-04T03:22:45;13.60;;;9.20;;
45650;SDS011;31365;48.858;8.530;2023-03-04T03:25:16;13.40;;;9.80;;
45650;SDS011;31365;48.858;8.530;2023-03-04T03:27:49;13.20;;;9.80;;
45650;SDS011;31365;48.858;8.530;2023-03-04T03:30:22;12.90;;;9.63;;
45650;SDS011;31365;48.858;8.530;2023-03-04T03:32:55;12.33;;;9.50;;
45650;SDS011;31365;48.858;8.530;2023-03-04T03:35:26;15.47;;;11.53;;
45650;SDS011;31365;48.858;8.530;2023-03-04T03:37:58;14.60;;;10.77;;
45650;SDS011;31365;48.858;8.530;2023-03-04T03:40:28;13.70;;;10.63;;
45650;SDS011;31365;48.858;8.530;2023-03-04T03:42:59;16.50;;;11.77;;
45650;SDS011;31365;48.858;8.530;2023-03-04T03:45:28;13.73;;;10.53;;
45650;SDS011;31365;48.858;8.530;2023-03-04T03:47:57;15.30;;;9.87;;
45650;SDS011;31365;48.858;8.530;2023-03-04T03:50:27;13.10;;;9.93;;
45650;SDS011;31365;48.858;8.530;2023-03-04T03:52:57;15.27;;;10.67;;
45650;SDS011;31365;48.858;8.530;2023-03-04T03:55:26;12.77;;;9.90;;
45650;SDS011;31365;48.858;8.530;2023-03-04T03:57:56;14.33;;;10.90;;
45650;SDS011;31365;48.858;8.530;2023-03-04T04:00:26;14.03;;;10.67;;
45650;SDS011;31365;48.858;8.530;2023-03-04T04:02:56;13.67;;;10.40;;
45650;SDS011;31365;48.858;8.530;2023-03-04T04:05:27;13.03;;;11.07;;
45650;SDS011;31365;48.858;8.530;2023-03-04T04:07:56;14.37;;;11.17;;
45650;SDS011;31365;48.858;8.530;2023-03-04T04:10:25;14.80;;;10.60;;
45650;SDS011;31365;48.858;8.530;2023-03-04T04:12:58;13.80;;;10.80;;
45650;SDS011;31365;48.858;8.530;2023-03-04T04:15:30;18.77;;;11.30;;
45650;SDS011;31365;48.858;8.530;2023-03-04T04:18:00;13.37;;;10.50;;
45650;SDS011;31365;48.858;8.530;2023-03-04T04:20:35;15.37;;;10.17;;
45650;SDS011;31365;48.858;8.530;2023-03-04T04:23:05;13.67;;;10.70;;
45650;SDS011;31365;48.858;8.530;2023-03-04T04:25:35;14.47;;;11.20;;
45650;SDS011;31365;48.858;8.530;2023-03-04T04:28:04;15.17;;;11.57;;
45650;SDS011;31365;48.858;8.530;2023-03-04T04:30:35;15.40;;;10.50;;
45650;SDS011;31365;48.858;8.530;2023-03-04T04:33:09;13.83;;;10.70;;
45650;SDS011;31365;48.858;8.530;2023-03-04T04:35:40;15.80;;;10.30;;
45650;SDS011;31365;48.858;8.530;2023-03-04T04:38:10;17.40;;;11.73;;
45650;SDS011;31365;48.858;8.530;2023-03-04T04:40:39;14.60;;;10.40;;
45650;SDS011;31365;48.858;8.530;2023-03-04T04:43:09;14.70;;;11.50;;
45650;SDS011;31365;48.858;8.530;2023-03-04T04:45:41;15.17;;;10.70;;
45650;SDS011;31365;48.858;8.530;2023-03-04T04:48:12;12.93;;;10.53;;
45650;SDS011;31365;48.858;8.530;2023-03-04T04:50:41;15.40;;;11.17;;
45650;SDS011;31365;48.858;8.530;2023-03-04T04:53:14;15.33;;;10.90;;
45650;SDS011;31365;48.858;8.530;2023-03-04T04:55:43;15.57;;;11.70;;
45650;SDS011;31365;48.858;8.530;2023-03-04T04:58:14;16.03;;;11.30;;
45650;SDS011;31365;48.858;8.530;2023-03-04T05:00:45;17.87;;;12.03;;
45650;SDS011;31365;48.858;8.530;2023-03-04T05:03:14;14.33;;;11.20;;
45650;SDS011;31365;48.858;8.530;2023-03-04T05:05:45;17.23;;;12.00;;
45650;SDS011;31365;48.858;8.530;2023-03-04T05:08:17;16.90;;;12.13;;
45650;SDS011;31365;48.858;8.530;2023-03-04T05:10:49;17.00;;;12.43;;
45650;SDS011;31365;48.858;8.530;2023-03-04T05:27:19;18.10;;;12.23;;
45650;SDS011;31365;48.858;8.530;2023-03-04T05:29:52;19.17;;;13.00;;
45650;SDS011;31365;48.858;8.530;2023-03-04T05:32:23;20.63;;;13.80;;
45650;SDS011;31365;48.858;8.530;2023-03-04T05:34:53;18.20;;;13.03;;
45650;SDS011;31365;48.858;8.530;2023-03-04T05:37:23;21.67;;;13.80;;
45650;SDS011;31365;48.858;8.530;2023-03-04T05:39:52;19.17;;;13.40;;
45650;SDS011;31365;48.858;8.530;2023-03-04T05:42:25;18.37;;;13.63;;
45650;SDS011;31365;48.858;8.530;2023-03-04T05:44:53;20.53;;;12.93;;
45650;SDS011;31365;48.858;8.530;2023-03-04T05:47:23;16.43;;;13.20;;
45650;SDS011;31365;48.858;8.530;2023-03-04T05:49:55;19.00;;;12.47;;
45650;SDS011;31365;48.858;8.530;2023-03-04T05:52:24;19.93;;;12.83;;
45650;SDS011;31365;48.858;8.530;2023-03-04T05:54:53;18.07;;;13.43;;
45650;SDS011;31365;48.858;8.530;2023-03-04T05:57:22;18.47;;;13.10;;
45650;SDS011;31365;48.858;8.530;2023-03-04T05:59:52;18.57;;;12.83;;
45650;SDS011;31365;48.858;8.530;2023-03-04T06:02:22;19.63;;;13.63;;
45650;SDS011;31365;48.858;8.530;2023-03-04T06:04:53;18.93;;;13.90;;
45650;SDS011;31365;48.858;8.530;2023-03-04T06:07:27;19.77;;;14.50;;
45650;SDS011;31365;48.858;8.530;2023-03-04T06:10:01;17.70;;;13.23;;
45650;SDS011;31365;48.858;8.530;2023-03-04T06:12:40;19.57;;;13.80;;
45650;SDS011;31365;48.858;8.530;2023-03-04T06:15:11;20.80;;;13.53;;
45650;SDS011;31365;48.858;8.530;2023-03-04T06:17:42;16.87;;;12.73;;
45650;SDS011;31365;48.858;8.530;2023-03-04T06:20:11;19.73;;;12.97;;
45650;SDS011;31365;48.858;8.530;2023-03-04T06:22:40;15.97;;;12.53;;
45650;SDS011;31365;48.858;8.530;2023-03-04T06:25:09;18.47;;;12.60;;
45650;SDS011;31365;48.858;8.530;2023-03-04T06:27:42;19.33;;;13.10;;
45650;SDS011;31365;48.858;8.530;2023-03-04T09:40:40;36.93;;;26.67;;
45650;SDS011;31365;48.858;8.530;2023-03-04T09:43:13;22.63;;;18.90;;
45650;SDS011;31365;48.858;8.530;2023-03-04T09:45:49;39.17;;;23.97;;
45650;SDS011;31365;48.858;8.530;2023-03-04T09:48:23;22.77;;;19.40;;
45650;SDS011;31365;48.858;8.530;2023-03-04T09:51:01;21.40;;;18.57;;
45650;SDS011;31365;48.858;8.530;2023-03-04T09:53:46;25.47;;;19.33;;
45650;SDS011;31365;48.858;8.530;2023-03-04T09:56:35;23.43;;;19.97;;
45650;SDS011;31365;48.858;8.530;2023-03-04T09:59:08;23.23;;;19.53;;
45650;SDS011;31365;48.858;8.530;2023-03-04T10:01:50;22.20;;;18.97;;
45650;SDS011;31365;48.858;8.530;2023-03-04T10:04:25;21.87;;;19.43;;
45650;SDS011;31365;48.858;8.530;2023-03-04T10:07:01;30.23;;;22.03;;
45650;SDS011;31365;48.858;8.530;2023-03-04T10:09:38;28.53;;;21.37;;
45650;SDS011;31365;48.858;8.530;2023-03-04T10:12:20;25.43;;;20.70;;
45650;SDS011;31365;48.858;8.530;2023-03-04T10:14:51;23.37;;;19.60;;
45650;SDS011;31365;48.858;8.530;2023-03-04T10:17:29;21.77;;;19.07;;
45650;SDS011;31365;48.858;8.530;2023-03-04T10:20:04;27.40;;;20.93;;
45650;SDS011;31365;48.858;8.530;2023-03-04T10:22:43;25.23;;;20.27;;
45650;SDS011;31365;48.858;8.530;2023-03-04T10:25:15;29.80;;;22.40;;
45650;SDS011;31365;48.858;8.530;2023-03-04T10:27:51;23.13;;;20.50;;
45650;SDS011;31365;48.858;8.530;2023-03-04T10:30:36;31.17;;;21.50;;
45650;SDS011;31365;48.858;8.530;2023-03-04T10:33:16;26.10;;;20.53;;
45650;SDS011;31365;48.858;8.530;2023-03-04T10:35:48;26.13;;;21.20;;
45650;SDS011;31365;48.858;8.530;2023-03-04T10:38:27;28.17;;;21.03;;
45650;SDS011;31365;48.858;8.530;2023-03-04T10:40:59;25.37;;;19.93;;
45650;SDS011;31365;48.858;8.530;2023-03-04T10:43:29;23.83;;;20.17;;
45650;SDS011;31365;48.858;8.530;2023-03-04T10:45:58;25.53;;;19.97;;
45650;SDS011;31365;48.858;8.530;2023-03-04T10:48:28;25.60;;;19.97;;
45650;SDS011;31365;48.858;8.530;2023-03-04T10:51:09;26.53;;;19.80;;
45650;SDS011;31365;48.858;8.530;2023-03-04T10:53:45;33.07;;;21.43;;
45650;SDS011;31365;48.858;8.530;2023-03-04T10:56:30;25.57;;;20.43;;
45650;SDS011;31365;48.858;8.530;2023-03-04T11:02:17;23.00;;;18.13;;
45650;SDS011;31365;48.858;8.530;2023-03-04T11:04:54;23.87;;;17.93;;
45650;SDS011;31365;48.858;8.530;2023-03-04T11:07:35;23.73;;;18.23;;
45650;SDS011;31365;48.858;8.530;2023-03-04T11:10:20;22.90;;;18.10;;
45650;SDS011;31365;48.858;8.530;2023-03-04T11:12:55;24.63;;;18.67;;
45650;SDS011;31365;48.858;8.530;2023-03-04T11:15:31;35.80;;;24.90;;
45650;SDS011;31365;48.858;8.530;2023-03-04T11:18:26;34.00;;;20.27;;
45650;SDS011;31365;48.858;8.530;2023-03-04T11:21:03;24.93;;;19.50;;
45650;SDS011;31365;48.858;8.530;2023-03-04T11:23:34;28.87;;;19.13;;
45650;SDS011;31365;48.858;8.530;2023-03-04T11:26:13;22.20;;;16.87;;
45650;SDS011;31365;48.858;8.530;2023-03-04T11:28:50;20.13;;;16.40;;
45650;SDS011;31365;48.858;8.530;2023-03-04T11:31:29;21.80;;;17.77;;
45650;SDS011;31365;48.858;8.530;2023-03-04T11:34:03;17.87;;;16.00;;
45650;SDS011;31365;48.858;8.530;2023-03-04T11:36:50;18.90;;;15.93;;
45650;SDS011;31365;48.858;8.530;2023-03-04T11:39:26;22.53;;;16.83;;
45650;SDS011;31365;48.858;8.530;2023-03-04T11:42:03;32.63;;;19.67;;
45650;SDS011;31365;48.858;8.530;2023-03-04T11:44:47;24.67;;;18.73;;
45650;SDS011;31365;48.858;8.530;2023-03-04T11:47:20;20.40;;;16.87;;
45650;SDS011;31365;48.858;8.530;2023-03-04T11:53:12;26.60;;;17.07;;
45650;SDS011;31365;48.858;8.530;2023-03-04T11:55:59;25.53;;;19.10;;
45650;SDS011;31365;48.858;8.530;2023-03-04T11:58:53;24.57;;;19.50;;
45650;SDS011;31365;48.858;8.530;2023-03-04T12:01:54;24.03;;;18.37;;
45650;SDS011;31365;48.858;8.530;2023-03-04T12:04:42;25.77;;;18.87;;
45650;SDS011;31365;48.858;8.530;2023-03-04T12:10:51;24.27;;;17.93;;
45650;SDS011;31365;48.858;8.530;2023-03-04T12:13:50;25.00;;;18.30;;
45650;SDS011;31365;48.858;8.530;2023-03-04T12:19:43;21.63;;;16.30;;
45650;SDS011;31365;48.858;8.530;2023-03-04T12:22:42;22.33;;;17.10;;
45650;SDS011;31365;48.858;8.530;2023-03-04T12:25:18;20.93;;;16.43;;
45650;SDS011;31365;48.858;8.530;2023-03-04T12:28:09;20.27;;;15.77;;
45650;SDS011;31365;48.858;8.530;2023-03-04T12:31:23;20.33;;;16.23;;
45650;SDS011;31365;48.858;8.530;2023-03-04T12:34:11;23.40;;;16.57;;
45650;SDS011;31365;48.858;8.530;2023-03-04T12:37:12;20.90;;;15.83;;
45650;SDS011;31365;48.858;8.530;2023-03-04T12:40:14;20.83;;;15.00;;
45650;SDS011;31365;48.858;8.530;2023-03-04T12:43:02;21.40;;;14.57;;
45650;SDS011;31365;48.858;8.530;2023-03-04T12:45:45;25.87;;;16.03;;
45650;SDS011;31365;48.858;8.530;2023-03-04T12:48:26;27.07;;;17.53;;
45650;SDS011;31365;48.858;8.530;2023-03-04T12:51:11;23.23;;;16.70;;
45650;SDS011;31365;48.858;8.530;2023-03-04T12:53:57;50.37;;;22.83;;
45650;SDS011;31365;48.858;8.530;2023-03-04T12:56:49;33.90;;;17.87;;
45650;SDS011;31365;48.858;8.530;2023-03-04T12:59:22;90.40;;;22.40;;
45650;SDS011;31365;48.858;8.530;2023-03-04T13:01:58;25.43;;;17.57;;
45650;SDS011;31365;48.858;8.530;2023-03-04T13:04:56;47.87;;;21.37;;
45650;SDS011;31365;48.858;8.530;2023-03-04T13:07:37;24.60;;;16.80;;
45650;SDS011;31365;48.858;8.530;2023-03-04T13:10:21;24.83;;;18.97;;
45650;SDS011;31365;48.858;8.530;2023-03-04T13:12:53;19.77;;;14.87;;
45650;SDS011;31365;48.858;8.530;2023-03-04T13:15:29;20.47;;;16.77;;
45650;SDS011;31365;48.858;8.530;2023-03-04T13:21:22;25.80;;;17.23;;
45650;SDS011;31365;48.858;8.530;2023-03-04T13:24:39;29.00;;;17.67;;
45650;SDS011;31365;48.858;8.530;2023-03-04T13:37:36;25.70;;;19.10;;
45650;SDS011;31365;48.858;8.530;2023-03-04T13:43:19;30.83;;;21.47;;
45650;SDS011;31365;48.858;8.530;2023-03-04T13:45:52;31.80;;;20.03;;
45650;SDS011;31365;48.858;8.530;2023-03-04T13:48:22;27.33;;;19.93;;
45650;SDS011;31365;48.858;8.530;2023-03-04T13:51:02;26.47;;;20.57;;
45650;SDS011;31365;48.858;8.530;2023-03-04T13:53:54;26.27;;;19.37;;
45650;SDS011;31365;48.858;8.530;2023-03-04T13:56:35;31.90;;;18.80;;
45650;SDS011;31365;48.858;8.530;2023-03-04T13:59:12;22.77;;;19.97;;
45650;SDS011;31365;48.858;8.530;2023-03-04T14:01:53;28.63;;;21.57;;
45650;SDS011;31365;48.858;8.530;2023-03-04T14:04:26;35.83;;;25.30;;
45650;SDS011;31365;48.858;8.530;2023-03-04T14:06:57;41.53;;;32.17;;
45650;SDS011;31365;48.858;8.530;2023-03-04T14:09:29;38.37;;;34.17;;
45650;SDS011;31365;48.858;8.530;2023-03-04T14:12:01;33.30;;;28.00;;
45650;SDS011;31365;48.858;8.530;2023-03-04T14:14:41;40.67;;;31.10;;
45650;SDS011;31365;48.858;8.530;2023-03-04T14:17:16;56.97;;;48.87;;
45650;SDS011;31365;48.858;8.530;2023-03-04T14:19:50;133.27;;;90.47;;
45650;SDS011;31365;48.858;8.530;2023-03-04T14:22:20;43.80;;;33.17;;
45650;SDS011;31365;48.858;8.530;2023-03-04T14:24:55;116.47;;;83.40;;
45650;SDS011;31365;48.858;8.530;2023-03-04T14:27:26;107.30;;;75.13;;
45650;SDS011;31365;48.858;8.530;2023-03-04T14:29:57;89.77;;;64.13;;
45650;SDS011;31365;48.858;8.530;2023-03-04T14:32:29;74.77;;;54.67;;
45650;SDS011;31365;48.858;8.530;2023-03-04T14:35:00;39.93;;;29.17;;
45650;SDS011;31365;48.858;8.530;2023-03-04T14:37:52;32.37;;;23.80;;
45650;SDS011;31365;48.858;8.530;2023-03-04T14:40:26;33.20;;;23.93;;
45650;SDS011;31365;48.858;8.530;2023-03-04T14:43:02;35.03;;;25.13;;
45650;SDS011;31365;48.858;8.530;2023-03-04T14:45:39;30.00;;;21.43;;
45650;SDS011;31365;48.858;8.530;2023-03-04T14:48:15;31.33;;;21.90;;
45650;SDS011;31365;48.858;8.530;2023-03-04T14:50:51;29.83;;;20.83;;
45650;SDS011;31365;48.858;8.530;2023-03-04T14:53:22;30.23;;;19.47;;
45650;SDS011;31365;48.858;8.530;2023-03-04T14:55:54;30.53;;;24.40;;
45650;SDS011;31365;48.858;8.530;2023-03-04T14:58:27;28.73;;;21.47;;
45650;SDS011;31365;48.858;8.530;2023-03-04T15:01:12;26.73;;;20.40;;
45650;SDS011;31365;48.858;8.530;2023-03-04T15:03:45;30.33;;;20.50;;
45650;SDS011;31365;48.858;8.530;2023-03-04T15:06:24;30.13;;;19.83;;
45650;SDS011;31365;48.858;8.530;2023-03-04T15:08:56;29.67;;;20.80;;
45650;SDS011;31365;48.858;8.530;2023-03-04T15:11:29;28.50;;;19.07;;
45650;SDS011;31365;48.858;8.530;2023-03-04T15:17:21;22.67;;;17.30;;
45650;SDS011;31365;48.858;8.530;2023-03-04T15:20:00;23.17;;;17.13;;
45650;SDS011;31365;48.858;8.530;2023-03-04T15:22:55;24.97;;;17.07;;
45650;SDS011;31365;48.858;8.530;2023-03-04T15:25:28;24.07;;;16.77;;
45650;SDS011;31365;48.858;8.530;2023-03-04T15:27:57;25.27;;;17.43;;
45650;SDS011;31365;48.858;8.530;2023-03-04T15:30:29;22.20;;;16.17;;
45650;SDS011;31365;48.858;8.530;2023-03-04T15:33:00;22.07;;;15.87;;
45650;SDS011;31365;48.858;8.530;2023-03-04T15:35:30;26.27;;;18.40;;
45650;SDS011;31365;48.858;8.530;2023-03-04T15:38:01;28.43;;;16.63;;
45650;SDS011;31365;48.858;8.530;2023-03-04T15:40:33;25.37;;;18.17;;
45650;SDS011;31365;48.858;8.530;2023-03-04T15:43:05;23.53;;;16.97;;
45650;SDS011;31365;48.858;8.530;2023-03-04T15:45:36;23.53;;;17.37;;
45650;SDS011;31365;48.858;8.530;2023-03-04T15:48:07;24.37;;;17.00;;
45650;SDS011;31365;48.858;8.530;2023-03-04T15:50:39;33.43;;;21.97;;
45650;SDS011;31365;48.858;8.530;2023-03-04T15:53:13;27.80;;;20.03;;
45650;SDS011;31365;48.858;8.530;2023-03-04T15:55:46;31.97;;;21.33;;
45650;SDS011;31365;48.858;8.530;2023-03-04T15:58:15;27.10;;;21.27;;
45650;SDS011;31365;48.858;8.530;2023-03-04T16:00:43;27.83;;;19.60;;
45650;SDS011;31365;48.858;8.530;2023-03-04T16:03:16;25.50;;;19.50;;
45650;SDS011;31365;48.858;8.530;2023-03-04T16:05:47;33.87;;;21.83;;
45650;SDS011;31365;48.858;8.530;2023-03-04T16:08:20;29.63;;;21.47;;
45650;SDS011;31365;48.858;8.530;2023-03-04T16:10:51;28.80;;;20.43;;
45650;SDS011;31365;48.858;8.530;2023-03-04T16:13:25;30.73;;;21.23;;
45650;SDS011;31365;48.858;8.530;2023-03-04T16:15:55;30.43;;;21.73;;
45650;SDS011;31365;48.858;8.530;2023-03-04T16:18:25;29.43;;;21.77;;
45650;SDS011;31365;48.858;8.530;2023-03-04T16:20:54;25.87;;;20.97;;
45650;SDS011;31365;48.858;8.530;2023-03-04T16:23:23;24.13;;;19.77;;
45650;SDS011;31365;48.858;8.530;2023-03-04T16:25:53;27.40;;;21.50;;
45650;SDS011;31365;48.858;8.530;2023-03-04T16:28:23;28.63;;;20.13;;
45650;SDS011;31365;48.858;8.530;2023-03-04T16:30:52;27.90;;;20.37;;
45650;SDS011;31365;48.858;8.530;2023-03-04T16:33:21;36.67;;;26.53;;
45650;SDS011;31365;48.858;8.530;2023-03-04T16:35:53;36.60;;;25.67;;
45650;SDS011;31365;48.858;8.530;2023-03-04T16:38:22;29.50;;;22.93;;
45650;SDS011;31365;48.858;8.530;2023-03-04T16:40:55;36.77;;;25.77;;
45650;SDS011;31365;48.858;8.530;2023-03-04T16:43:27;68.37;;;43.70;;
45650;SDS011;31365;48.858;8.530;2023-03-04T16:45:57;52.00;;;36.47;;
45650;SDS011;31365;48.858;8.530;2023-03-04T16:48:26;77.47;;;52.90;;
45650;SDS011;31365;48.858;8.530;2023-03-04T16:50:55;26.87;;;21.47;;
45650;SDS011;31365;48.858;8.530;2023-03-04T16:53:26;26.50;;;20.20;;
45650;SDS011;31365;48.858;8.530;2023-03-04T16:56:02;30.00;;;21.33;;
45650;SDS011;31365;48.858;8.530;2023-03-04T16:58:33;29.07;;;22.87;;
45650;SDS011;31365;48.858;8.530;2023-03-04T17:01:04;32.23;;;22.47;;
45650;SDS011;31365;48.858;8.530;2023-03-04T17:03:32;37.53;;;26.20;;
45650;SDS011;31365;48.858;8.530;2023-03-04T17:06:02;40.40;;;28.77;;
45650;SDS011;31365;48.858;8.530;2023-03-04T17:08:31;34.40;;;25.33;;
45650;SDS011;31365;48.858;8.530;2023-03-04T17:10:59;33.10;;;24.23;;
45650;SDS011;31365;48.858;8.530;2023-03-04T17:13:28;25.13;;;21.00;;
45650;SDS011;31365;48.858;8.530;2023-03-04T17:15:58;34.30;;;23.20;;
45650;SDS011;31365;48.858;8.530;2023-03-04T17:18:28;29.13;;;22.87;;
45650;SDS011;31365;48.858;8.530;2023-03-04T17:21:00;26.83;;;21.03;;
45650;SDS011;31365;48.858;8.530;2023-03-04T17:23:33;26.70;;;21.13;;
45650;SDS011;31365;48.858;8.530;2023-03-04T17:26:01;29.03;;;21.60;;
45650;SDS011;31365;48.858;8.530;2023-03-04T17:28:30;30.70;;;23.00;;
45650;SDS011;31365;48.858;8.530;2023-03-04T17:31:00;25.63;;;20.43;;
45650;SDS011;31365;48.858;8.530;2023-03-04T17:33:34;30.70;;;21.73;;
45650;SDS011;31365;48.858;8.530;2023-03-04T17:36:04;26.87;;;21.87;;
45650;SDS011;31365;48.858;8.530;2023-03-04T17:38:37;29.80;;;21.53;;
45650;SDS011;31365;48.858;8.530;2023-03-04T17:41:07;27.13;;;20.40;;
45650;SDS011;31365;48.858;8.530;2023-03-04T17:43:38;26.90;;;21.73;;
45650;SDS011;31365;48.858;8.530;2023-03-04T17:46:12;27.27;;;19.80;;
45650;SDS011;31365;48.858;8.530;2023-03-04T17:48:42;29.83;;;20.90;;
45650;SDS011;31365;48.858;8.530;2023-03-04T17:51:12;27.17;;;19.83;;
45650;SDS011;31365;48.858;8.530;2023-03-04T17:53:42;23.00;;;18.87;;
45650;SDS011;31365;48.858;8.530;2023-03-04T17:56:10;31.37;;;22.00;;
45650;SDS011;31365;48.858;8.530;2023-03-04T17:58:40;26.97;;;21.63;;
45650;SDS011;31365;48.858;8.530;2023-03-04T18:01:10;27.87;;;22.23;;
45650;SDS011;31365;48.858;8.530;2023-03-04T18:03:46;27.90;;;22.03;;
45650;SDS011;31365;48.858;8.530;2023-03-04T18:06:17;29.47;;;21.53;;
45650;SDS011;31365;48.858;8.530;2023-03-04T18:08:47;39.57;;;27.47;;
45650;SDS011;31365;48.858;8.530;2023-03-04T18:11:16;30.37;;;25.43;;
45650;SDS011;31365;48.858;8.530;2023-03-04T18:13:45;35.90;;;27.77;;
45650;SDS011;31365;48.858;8.530;2023-03-04T18:16:15;38.00;;;26.37;;
45650;SDS011;31365;48.858;8.530;2023-03-04T18:18:49;27.60;;;21.07;;
45650;SDS011;31365;48.858;8.530;2023-03-04T18:21:19;26.40;;;20.20;;
45650;SDS011;31365;48.858;8.530;2023-03-04T18:23:48;31.90;;;22.30;;
45650;SDS011;31365;48.858;8.530;2023-03-04T18:26:18;32.33;;;23.03;;
45650;SDS011;31365;48.858;8.530;2023-03-04T18:28:49;33.40;;;25.67;;
45650;SDS011;31365;48.858;8.530;2023-03-04T18:31:19;43.13;;;30.33;;
45650;SDS011;31365;48.858;8.530;2023-03-04T18:33:51;38.20;;;27.03;;
45650;SDS011;31365;48.858;8.530;2023-03-04T18:36:28;36.50;;;27.70;;
45650;SDS011;31365;48.858;8.530;2023-03-04T18:39:10;35.57;;;26.07;;
45650;SDS011;31365;48.858;8.530;2023-03-04T18:41:52;29.80;;;20.67;;
45650;SDS011;31365;48.858;8.530;2023-03-04T18:44:21;31.77;;;19.60;;
45650;SDS011;31365;48.858;8.530;2023-03-04T18:46:49;27.90;;;18.40;;
45650;SDS011;31365;48.858;8.530;2023-03-04T18:49:23;26.37;;;18.73;;
45650;SDS011;31365;48.858;8.530;2023-03-04T18:51:53;29.33;;;19.77;;
45650;SDS011;31365;48.858;8.530;2023-03-04T18:54:22;28.87;;;19.50;;
45650;SDS011;31365;48.858;8.530;2023-03-04T18:56:51;24.40;;;17.60;;
45650;SDS011;31365;48.858;8.530;2023-03-04T18:59:26;23.57;;;18.87;;
45650;SDS011;31365;48.858;8.530;2023-03-04T19:02:03;23.93;;;17.90;;
45650;SDS011;31365;48.858;8.530;2023-03-04T19:04:42;27.00;;;17.90;;
45650;SDS011;31365;48.858;8.530;2023-03-04T19:07:14;20.50;;;16.43;;
45650;SDS011;31365;48.858;8.530;2023-03-04T19:09:43;24.73;;;16.10;;
45650;SDS011;31365;48.858;8.530;2023-03-04T19:12:12;20.67;;;15.10;;
45650;SDS011;31365;48.858;8.530;2023-03-04T19:14:40;24.53;;;15.50;;
45650;SDS011;31365;48.858;8.530;2023-03-04T19:17:09;25.20;;;19.13;;
45650;SDS011;31365;48.858;8.530;2023-03-04T19:19:38;22.63;;;17.07;;
45650;SDS011;31365;48.858;8.530;2023-03-04T19:22:07;25.93;;;22.43;;
45650;SDS011;31365;48.858;8.530;2023-03-04T19:24:37;30.20;;;23.00;;
45650;SDS011;31365;48.858;8.530;2023-03-04T19:27:07;27.77;;;19.63;;
45650;SDS011;31365;48.858;8.530;2023-03-04T19:29:35;25.90;;;19.07;;
45650;SDS011;31365;48.858;8.530;2023-03-04T19:32:04;25.67;;;16.90;;
45650;SDS011;31365;48.858;8.530;2023-03-04T19:34:33;25.67;;;16.07;;
45650;SDS011;31365;48.858;8.530;2023-03-04T19:37:02;21.40;;;15.30;;
45650;SDS011;31365;48.858;8.530;2023-03-04T19:39:30;20.63;;;15.30;;
45650;SDS011;31365;48.858;8.530;2023-03-04T19:42:00;28.00;;;20.23;;
45650;SDS011;31365;48.858;8.530;2023-03-04T19:44:30;23.70;;;16.93;;
45650;SDS011;31365;48.858;8.530;2023-03-04T19:46:58;20.23;;;14.30;;
45650;SDS011;31365;48.858;8.530;2023-03-04T19:49:27;23.77;;;14.17;;
45650;SDS011;31365;48.858;8.530;2023-03-04T19:51:55;22.40;;;14.53;;
45650;SDS011;31365;48.858;8.530;2023-03-04T19:54:26;18.57;;;12.87;;
45650;SDS011;31365;48.858;8.530;2023-03-04T19:56:54;16.77;;;13.73;;
45650;SDS011;31365;48.858;8.530;2023-03-04T19:59:26;17.50;;;12.63;;
45650;SDS011;31365;48.858;8.530;2023-03-04T20:01:57;18.83;;;13.17;;
45650;SDS011;31365;48.858;8.530;2023-03-04T20:04:28;23.40;;;15.50;;
45650;SDS011;31365;48.858;8.530;2023-03-04T20:07:06;23.20;;;15.77;;